Syracuse Hancock International Airport
KSYR : now visible

Airfield :











YOU CAN JOIN US ON...

 
LOGIN :

Register | Disclaimer

   EN    FR    IT 

 









Legend :    VFR   Marginal VFR   IFR   Intensive IFR   Very Intensive IFR
Visi :
Ceiling :
>= 8 km
>= 3000ft
5 to 8 km
1000 to 3000 ft
1500m to 5 km
500 to 1000 ft
800 to 1500m
200 to 500 ft
< 800m
< 200 ft
Symbols :   Thunderstorms  Fog  Heavy snow  Heavy precipitations  Wind > 20 kt






- Airport Elevation : 421 ft
- IATA code : SYR


KSYR - Syracuse Hancock International

CURRENT METAR :
  • 170854Z 25016G24KT 9SM BKN050 OVC060 01/M06 A2942 RMK AO2 PK WND 25028/0839 SNE52 SLP964 P0000 60000 T00061056 51008

EXPIRED METARs :
  • 170754Z 25019G27KT 9SM -SN BKN036 OVC060 01/M06 A2942 RMK AO2 PK WND 24029/0733 SNB34 SLP963 P0000 T00061056
  • 170654Z 25021G31KT 10SM BKN037 01/M05 A2941 RMK AO2 PK WND 25031/0648 SLP959 T00061050

TAF KSYR
Valid from the 17 at 06:00 until the 18 at 06:00 UTC


170539Z 1706/1806 26015G25KT P6SM OVC035
TEMPO 1710/1714 2SM -SN BR OVC018
FM171400 26012G22KT 5SM -SHSN BR OVC025
FM171800 26014G23KT P6SM OVC035
FM172300 26012KT P6SM OVC028
KZBW FIR / North America



MET'MAP, your aeronautical weather chart ! - Copyright ORBIFLY December 2007 - Disclaimer

ORBIFLY MET'MAP TEAM :

Programming & Development : Alexandra Zaïnal
Concept & original design : Baudouin d'Aumeries
Assistance for programming : Marc-Olivier Méhu
Technical & hardware support : Manuel Goepfert

Contact : metmap@orbifly.com




SOURCES & CREDITS :

   NOAA       Earth
Advisory